N8358U KMSY-KCLT
Flight info
| Callsign | N8358U |
|---|---|
| Flight time | 1h 23m |
| Altitude | 29000 |
| Route | BESTT JONZE5 |
| Aircraft | C700/M-SDFGZLB1PBNO2/G |
Departure
| Time | 2026-05-05 21:51 |
|---|---|
| Airport | Louis Armstrong New Orleans International Airport (KMSY) |
Arrival
| Time | 2026-05-05 23:15 |
|---|---|
| Airport | Charlotte Douglas International Airport (KCLT) |
| Time | Latitude | Longitude | Altitude | Speed | Heading |
|---|---|---|---|---|---|
| 2026-05-05 21:39 | 29.99716 | -90.26527 | 8 ft | 0 kts | 20° |
| 2026-05-05 21:47 | 29.99718 | -90.26514 | 7 ft | 4 kts | 107° |
| 2026-05-05 21:47 | 29.99684 | -90.26532 | 8 ft | 10 kts | 218° |
| 2026-05-05 21:47 | 29.99602 | -90.26572 | 8 ft | 16 kts | 194° |
| 2026-05-05 21:47 | 29.99529 | -90.26656 | 9 ft | 16 kts | 277° |
| 2026-05-05 21:48 | 29.99556 | -90.26788 | 9 ft | 17 kts | 285° |
| 2026-05-05 21:48 | 29.99589 | -90.26925 | 10 ft | 18 kts | 286° |
| 2026-05-05 21:48 | 29.99627 | -90.27075 | 7 ft | 21 kts | 286° |
| 2026-05-05 21:48 | 29.99669 | -90.27250 | 4 ft | 24 kts | 286° |
| 2026-05-05 21:49 | 29.99714 | -90.27438 | 3 ft | 25 kts | 285° |
| 2026-05-05 21:49 | 29.99750 | -90.27611 | 4 ft | 13 kts | 263° |
| 2026-05-05 21:49 | 29.99688 | -90.27679 | 2 ft | 14 kts | 197° |
| 2026-05-05 21:49 | 29.99649 | -90.27693 | 1 ft | 0 kts | 196° |
| 2026-05-05 21:50 | 29.99643 | -90.27695 | 1 ft | 4 kts | 196° |
| 2026-05-05 21:50 | 29.99578 | -90.27715 | 1 ft | 12 kts | 181° |
| 2026-05-05 21:50 | 29.99546 | -90.27674 | 1 ft | 0 kts | 105° |
| 2026-05-05 21:51 | 29.99539 | -90.27647 | 1 ft | 24 kts | 105° |
| 2026-05-05 21:51 | 29.99414 | -90.27131 | 8 ft | 107 kts | 105° |
| 2026-05-05 21:51 | 29.99147 | -90.26051 | 146 ft | 166 kts | 107° |
| 2026-05-05 21:51 | 29.99070 | -90.24602 | 955 ft | 200 kts | 72° |
| 2026-05-05 21:52 | 30.01363 | -90.22287 | 3220 ft | 239 kts | 39° |
| 2026-05-05 21:52 | 30.02565 | -90.20842 | 4205 ft | 262 kts | 55° |
| 2026-05-05 21:52 | 30.03591 | -90.18985 | 5260 ft | 282 kts | 60° |
| 2026-05-05 21:53 | 30.04640 | -90.17073 | 6594 ft | 289 kts | 55° |
| 2026-05-05 21:53 | 30.05852 | -90.15189 | 7872 ft | 295 kts | 51° |
| 2026-05-05 21:53 | 30.07111 | -90.13273 | 9114 ft | 303 kts | 52° |
| 2026-05-05 21:53 | 30.08330 | -90.11263 | 10338 ft | 310 kts | 54° |
| 2026-05-05 21:54 | 30.09582 | -90.09111 | 10933 ft | 335 kts | 53° |
| 2026-05-05 21:54 | 30.10920 | -90.06877 | 12024 ft | 338 kts | 51° |
| 2026-05-05 21:54 | 30.12297 | -90.04664 | 13180 ft | 341 kts | 50° |
| 2026-05-05 21:54 | 30.13694 | -90.02425 | 14243 ft | 345 kts | 49° |
| 2026-05-05 21:55 | 30.15090 | -90.00129 | 15108 ft | 354 kts | 50° |
| 2026-05-05 21:55 | 30.16487 | -89.97792 | 15952 ft | 362 kts | 49° |
| 2026-05-05 21:55 | 30.17944 | -89.95383 | 16797 ft | 369 kts | 49° |
| 2026-05-05 21:55 | 30.19454 | -89.92928 | 17637 ft | 377 kts | 48° |
| 2026-05-05 21:56 | 30.20987 | -89.90431 | 18457 ft | 385 kts | 48° |
| 2026-05-05 21:56 | 30.22534 | -89.87869 | 19220 ft | 390 kts | 48° |
| 2026-05-05 21:56 | 30.24090 | -89.85273 | 20008 ft | 395 kts | 48° |
| 2026-05-05 21:56 | 30.25680 | -89.82661 | 20772 ft | 399 kts | 47° |
| 2026-05-05 21:57 | 30.27294 | -89.80027 | 21542 ft | 404 kts | 47° |
| 2026-05-05 21:57 | 30.28921 | -89.77341 | 22280 ft | 409 kts | 47° |
| 2026-05-05 21:57 | 30.30554 | -89.74615 | 23018 ft | 414 kts | 47° |
| 2026-05-05 21:57 | 30.32188 | -89.71898 | 23688 ft | 419 kts | 47° |
| 2026-05-05 21:58 | 30.33881 | -89.69124 | 24278 ft | 423 kts | 46° |
| 2026-05-05 21:58 | 30.35587 | -89.66323 | 24863 ft | 427 kts | 47° |
| 2026-05-05 21:58 | 30.37297 | -89.63477 | 25463 ft | 432 kts | 47° |
| 2026-05-05 21:58 | 30.39018 | -89.60594 | 26060 ft | 437 kts | 47° |
| 2026-05-05 21:59 | 30.40763 | -89.57693 | 26659 ft | 441 kts | 47° |
| 2026-05-05 21:59 | 30.42540 | -89.54769 | 27239 ft | 445 kts | 47° |
| 2026-05-05 21:59 | 30.44307 | -89.51854 | 27795 ft | 450 kts | 48° |
| 2026-05-05 21:59 | 30.46099 | -89.48858 | 28338 ft | 454 kts | 48° |
| 2026-05-05 22:00 | 30.47908 | -89.45817 | 28886 ft | 459 kts | 48° |
| 2026-05-05 22:00 | 30.49765 | -89.42729 | 28967 ft | 475 kts | 48° |
| 2026-05-05 22:00 | 30.51705 | -89.39540 | 28977 ft | 492 kts | 48° |
| 2026-05-05 22:00 | 30.53701 | -89.36226 | 28984 ft | 508 kts | 49° |
| 2026-05-05 22:01 | 30.55710 | -89.32820 | 28991 ft | 512 kts | 49° |
| 2026-05-05 22:01 | 30.59739 | -89.26053 | 28994 ft | 512 kts | 48° |
| 2026-05-05 22:02 | 30.63843 | -89.19270 | 29001 ft | 514 kts | 49° |
| 2026-05-05 22:02 | 30.67882 | -89.12383 | 28992 ft | 516 kts | 49° |
| 2026-05-05 22:03 | 30.72011 | -89.05535 | 28994 ft | 517 kts | 48° |
| 2026-05-05 22:03 | 30.76101 | -88.98622 | 28987 ft | 520 kts | 49° |
| 2026-05-05 22:04 | 30.80167 | -88.91717 | 28992 ft | 520 kts | 48° |
| 2026-05-05 22:04 | 30.84325 | -88.84801 | 28992 ft | 522 kts | 49° |
| 2026-05-05 22:05 | 30.88405 | -88.77776 | 28995 ft | 524 kts | 49° |
| 2026-05-05 22:05 | 30.92571 | -88.70795 | 28995 ft | 525 kts | 48° |
| 2026-05-05 22:06 | 30.96025 | -88.64953 | 28992 ft | 527 kts | 49° |
| 2026-05-05 22:06 | 31.00815 | -88.56700 | 28994 ft | 528 kts | 48° |
| 2026-05-05 22:07 | 31.04339 | -88.50818 | 28995 ft | 529 kts | 48° |
| 2026-05-05 22:07 | 31.08435 | -88.43736 | 28984 ft | 531 kts | 49° |
| 2026-05-05 22:08 | 31.12601 | -88.36614 | 28995 ft | 530 kts | 48° |
| 2026-05-05 22:08 | 31.16802 | -88.29512 | 28988 ft | 532 kts | 49° |
| 2026-05-05 22:09 | 31.20918 | -88.22300 | 28991 ft | 533 kts | 49° |
| 2026-05-05 22:09 | 31.25107 | -88.15233 | 28996 ft | 532 kts | 48° |
| 2026-05-05 22:10 | 31.29257 | -88.08028 | 28991 ft | 535 kts | 49° |
| 2026-05-05 22:10 | 31.33402 | -88.00821 | 28994 ft | 533 kts | 48° |
| 2026-05-05 22:11 | 31.37611 | -87.93688 | 28997 ft | 533 kts | 49° |
| 2026-05-05 22:11 | 31.41709 | -87.86423 | 28988 ft | 533 kts | 49° |
| 2026-05-05 22:12 | 31.45895 | -87.79270 | 28995 ft | 531 kts | 47° |
| 2026-05-05 22:12 | 31.50010 | -87.72120 | 28989 ft | 533 kts | 49° |
| 2026-05-05 22:13 | 31.54109 | -87.64860 | 28995 ft | 531 kts | 48° |
| 2026-05-05 22:13 | 31.58305 | -87.57720 | 28989 ft | 532 kts | 48° |
| 2026-05-05 22:14 | 31.62371 | -87.50456 | 28985 ft | 532 kts | 49° |
| 2026-05-05 22:14 | 31.66482 | -87.43309 | 28987 ft | 530 kts | 47° |
| 2026-05-05 22:15 | 31.70624 | -87.36120 | 28977 ft | 532 kts | 49° |
| 2026-05-05 22:15 | 31.74667 | -87.28838 | 28968 ft | 531 kts | 49° |
| 2026-05-05 22:16 | 31.78838 | -87.21679 | 28949 ft | 530 kts | 48° |
| 2026-05-05 22:16 | 31.82892 | -87.14416 | 28930 ft | 531 kts | 50° |
| 2026-05-05 22:17 | 31.86942 | -87.07230 | 28913 ft | 528 kts | 48° |
| 2026-05-05 22:17 | 31.91074 | -87.00060 | 28908 ft | 529 kts | 49° |
| 2026-05-05 22:18 | 31.95072 | -86.92764 | 28914 ft | 528 kts | 49° |
| 2026-05-05 22:18 | 31.99182 | -86.85614 | 28929 ft | 526 kts | 48° |
| 2026-05-05 22:19 | 32.03214 | -86.78395 | 28936 ft | 528 kts | 50° |
| 2026-05-05 22:19 | 32.07214 | -86.71153 | 28932 ft | 526 kts | 48° |
| 2026-05-05 22:20 | 32.11299 | -86.64041 | 28922 ft | 526 kts | 49° |
| 2026-05-05 22:20 | 32.15254 | -86.56766 | 28962 ft | 527 kts | 50° |
| 2026-05-05 22:21 | 32.19305 | -86.49593 | 28988 ft | 524 kts | 48° |
| 2026-05-05 22:21 | 32.23337 | -86.42386 | 29000 ft | 526 kts | 50° |
| 2026-05-05 22:22 | 32.27292 | -86.35095 | 28993 ft | 525 kts | 49° |
| 2026-05-05 22:22 | 32.31341 | -86.27993 | 29002 ft | 524 kts | 49° |
| 2026-05-05 22:23 | 32.35287 | -86.20706 | 28973 ft | 526 kts | 50° |
| 2026-05-05 22:23 | 32.39286 | -86.13478 | 28975 ft | 524 kts | 49° |
| 2026-05-05 22:24 | 32.43320 | -86.06276 | 28978 ft | 525 kts | 50° |
| 2026-05-05 22:24 | 32.47210 | -85.98997 | 28978 ft | 524 kts | 50° |
| 2026-05-05 22:25 | 32.51251 | -85.91817 | 28981 ft | 523 kts | 49° |
| 2026-05-05 22:25 | 32.55188 | -85.84554 | 28989 ft | 524 kts | 51° |
| 2026-05-05 22:26 | 32.59096 | -85.77326 | 28999 ft | 522 kts | 49° |
| 2026-05-05 22:26 | 32.63124 | -85.70136 | 29003 ft | 523 kts | 50° |
| 2026-05-05 22:27 | 32.66997 | -85.62811 | 29011 ft | 523 kts | 51° |
| 2026-05-05 22:27 | 32.70953 | -85.55655 | 29011 ft | 520 kts | 50° |
| 2026-05-05 22:28 | 32.74895 | -85.48415 | 29010 ft | 522 kts | 52° |
| 2026-05-05 22:28 | 32.78756 | -85.41117 | 29010 ft | 520 kts | 51° |
| 2026-05-05 22:29 | 32.82745 | -85.33952 | 29018 ft | 519 kts | 51° |
| 2026-05-05 22:29 | 32.86588 | -85.26663 | 29009 ft | 520 kts | 52° |
| 2026-05-05 22:30 | 32.90460 | -85.19486 | 29025 ft | 517 kts | 51° |
| 2026-05-05 22:30 | 32.94395 | -85.12299 | 29018 ft | 518 kts | 52° |
| 2026-05-05 22:31 | 32.98194 | -85.04990 | 29025 ft | 518 kts | 52° |
| 2026-05-05 22:31 | 33.02129 | -84.97825 | 29020 ft | 516 kts | 51° |
| 2026-05-05 22:32 | 33.05943 | -84.90628 | 29023 ft | 517 kts | 54° |
| 2026-05-05 22:32 | 33.09756 | -84.83361 | 29015 ft | 515 kts | 52° |
| 2026-05-05 22:33 | 33.13679 | -84.76203 | 29031 ft | 515 kts | 53° |
| 2026-05-05 22:33 | 33.17448 | -84.68896 | 29024 ft | 516 kts | 54° |
| 2026-05-05 22:34 | 33.21242 | -84.61814 | 29027 ft | 514 kts | 52° |
| 2026-05-05 22:34 | 33.25082 | -84.54649 | 29019 ft | 515 kts | 54° |
| 2026-05-05 22:35 | 33.28817 | -84.47352 | 29024 ft | 514 kts | 54° |
| 2026-05-05 22:35 | 33.32715 | -84.40174 | 29047 ft | 513 kts | 53° |
| 2026-05-05 22:36 | 33.36481 | -84.32909 | 29054 ft | 514 kts | 55° |
| 2026-05-05 22:36 | 33.40227 | -84.25688 | 29049 ft | 513 kts | 53° |
| 2026-05-05 22:37 | 33.44101 | -84.18504 | 29044 ft | 513 kts | 54° |
| 2026-05-05 22:37 | 33.47811 | -84.11171 | 29027 ft | 513 kts | 55° |
| 2026-05-05 22:38 | 33.51634 | -84.03964 | 29013 ft | 512 kts | 53° |
| 2026-05-05 22:38 | 33.55408 | -83.96774 | 29002 ft | 513 kts | 55° |
| 2026-05-05 22:39 | 33.58977 | -83.89370 | 29007 ft | 516 kts | 60° |
| 2026-05-05 22:39 | 33.60243 | -83.85303 | 28989 ft | 521 kts | 72° |
| 2026-05-05 22:39 | 33.61128 | -83.81078 | 28990 ft | 521 kts | 74° |
| 2026-05-05 22:40 | 33.63222 | -83.72849 | 28999 ft | 519 kts | 68° |
| 2026-05-05 22:40 | 33.65387 | -83.64538 | 29009 ft | 521 kts | 72° |
| 2026-05-05 22:41 | 33.67527 | -83.56259 | 29006 ft | 516 kts | 62° |
| 2026-05-05 22:41 | 33.71284 | -83.48985 | 29013 ft | 511 kts | 51° |
| 2026-05-05 22:42 | 33.75000 | -83.41684 | 29020 ft | 514 kts | 58° |
| 2026-05-05 22:42 | 33.78329 | -83.34137 | 29018 ft | 513 kts | 57° |
| 2026-05-05 22:43 | 33.82100 | -83.26864 | 29028 ft | 512 kts | 53° |
| 2026-05-05 22:43 | 33.85821 | -83.19540 | 29017 ft | 513 kts | 55° |
| 2026-05-05 22:44 | 33.89702 | -83.12365 | 29022 ft | 510 kts | 51° |
| 2026-05-05 22:44 | 33.93719 | -83.05309 | 29011 ft | 512 kts | 54° |
| 2026-05-05 22:45 | 33.97454 | -82.97988 | 29024 ft | 512 kts | 54° |
| 2026-05-05 22:45 | 34.01431 | -82.90934 | 29019 ft | 511 kts | 51° |
| 2026-05-05 22:46 | 34.05321 | -82.83729 | 29027 ft | 513 kts | 55° |
| 2026-05-05 22:46 | 34.09110 | -82.76430 | 29020 ft | 511 kts | 53° |
| 2026-05-05 22:47 | 34.13126 | -82.69352 | 29024 ft | 511 kts | 53° |
| 2026-05-05 22:47 | 34.15024 | -82.65769 | 28724 ft | 511 kts | 55° |
| 2026-05-05 22:47 | 34.16856 | -82.62136 | 28054 ft | 501 kts | 56° |
| 2026-05-05 22:47 | 34.18684 | -82.58605 | 27398 ft | 491 kts | 54° |
| 2026-05-05 22:48 | 34.20577 | -82.55191 | 26757 ft | 481 kts | 52° |
| 2026-05-05 22:48 | 34.22449 | -82.51892 | 26123 ft | 471 kts | 53° |
| 2026-05-05 22:48 | 34.24225 | -82.48601 | 25514 ft | 463 kts | 54° |
| 2026-05-05 22:48 | 34.25896 | -82.45312 | 24918 ft | 454 kts | 56° |
| 2026-05-05 22:49 | 34.27526 | -82.42124 | 24334 ft | 448 kts | 54° |
| 2026-05-05 22:49 | 34.29228 | -82.38982 | 23745 ft | 443 kts | 53° |
| 2026-05-05 22:49 | 34.30943 | -82.35917 | 23239 ft | 435 kts | 53° |
| 2026-05-05 22:49 | 34.32578 | -82.32889 | 22968 ft | 424 kts | 54° |
| 2026-05-05 22:50 | 34.34115 | -82.29889 | 22696 ft | 415 kts | 56° |
| 2026-05-05 22:50 | 34.35619 | -82.26953 | 22421 ft | 406 kts | 54° |
| 2026-05-05 22:50 | 34.37119 | -82.24151 | 22161 ft | 399 kts | 53° |
| 2026-05-05 22:50 | 34.38644 | -82.21378 | 21896 ft | 392 kts | 53° |
| 2026-05-05 22:51 | 34.40132 | -82.18609 | 21631 ft | 391 kts | 54° |
| 2026-05-05 22:51 | 34.41573 | -82.15829 | 21376 ft | 389 kts | 55° |
| 2026-05-05 22:51 | 34.43011 | -82.13041 | 21107 ft | 388 kts | 54° |
| 2026-05-05 22:51 | 34.44462 | -82.10300 | 20850 ft | 386 kts | 54° |
| 2026-05-05 22:52 | 34.45936 | -82.07572 | 20591 ft | 385 kts | 54° |
| 2026-05-05 22:52 | 34.47389 | -82.04852 | 20348 ft | 384 kts | 54° |
| 2026-05-05 22:52 | 34.48801 | -82.02141 | 20092 ft | 383 kts | 55° |
| 2026-05-05 22:52 | 34.50216 | -81.99403 | 19836 ft | 383 kts | 54° |
| 2026-05-05 22:53 | 34.51648 | -81.96681 | 19583 ft | 382 kts | 54° |
| 2026-05-05 22:53 | 34.53094 | -81.93977 | 19330 ft | 382 kts | 54° |
| 2026-05-05 22:53 | 34.54525 | -81.91282 | 19077 ft | 374 kts | 54° |
| 2026-05-05 22:53 | 34.55886 | -81.88659 | 18827 ft | 360 kts | 55° |
| 2026-05-05 22:54 | 34.57189 | -81.86136 | 18586 ft | 346 kts | 54° |
| 2026-05-05 22:54 | 34.58035 | -81.84519 | 18435 ft | 339 kts | 54° |
| 2026-05-05 22:54 | 34.59291 | -81.82152 | 18187 ft | 328 kts | 53° |
| 2026-05-05 22:54 | 34.60889 | -81.79134 | 17880 ft | 316 kts | 54° |
| 2026-05-05 22:55 | 34.62064 | -81.76879 | 17675 ft | 316 kts | 54° |
| 2026-05-05 22:55 | 34.63233 | -81.74624 | 17462 ft | 316 kts | 54° |
| 2026-05-05 22:55 | 34.64408 | -81.72374 | 17250 ft | 316 kts | 54° |
| 2026-05-05 22:55 | 34.65594 | -81.70121 | 17033 ft | 316 kts | 54° |
| 2026-05-05 22:56 | 34.66378 | -81.68630 | 16889 ft | 316 kts | 54° |
| 2026-05-05 22:56 | 34.67557 | -81.66367 | 16674 ft | 316 kts | 54° |
| 2026-05-05 22:56 | 34.68733 | -81.64104 | 16460 ft | 317 kts | 54° |
| 2026-05-05 22:56 | 34.69913 | -81.61836 | 16248 ft | 317 kts | 54° |
| 2026-05-05 22:57 | 34.71093 | -81.59573 | 16036 ft | 317 kts | 54° |
| 2026-05-05 22:57 | 34.72275 | -81.57308 | 15826 ft | 318 kts | 54° |
| 2026-05-05 22:57 | 34.73459 | -81.55035 | 15621 ft | 318 kts | 55° |
| 2026-05-05 22:57 | 34.74645 | -81.52749 | 15402 ft | 319 kts | 55° |
| 2026-05-05 22:58 | 34.75953 | -81.50588 | 15201 ft | 316 kts | 44° |
| 2026-05-05 22:58 | 34.77487 | -81.48744 | 14987 ft | 314 kts | 40° |
| 2026-05-05 22:58 | 34.79071 | -81.46903 | 14786 ft | 314 kts | 41° |
| 2026-05-05 22:58 | 34.80617 | -81.45038 | 14575 ft | 312 kts | 42° |
| 2026-05-05 22:59 | 34.82137 | -81.43162 | 14370 ft | 311 kts | 42° |
| 2026-05-05 22:59 | 34.83649 | -81.41286 | 14163 ft | 309 kts | 42° |
| 2026-05-05 22:59 | 34.85155 | -81.39418 | 13956 ft | 308 kts | 42° |
| 2026-05-05 22:59 | 34.86658 | -81.37559 | 13738 ft | 307 kts | 42° |
| 2026-05-05 23:00 | 34.89653 | -81.33868 | 13106 ft | 307 kts | 43° |
| 2026-05-05 23:00 | 34.91149 | -81.32036 | 12648 ft | 310 kts | 42° |
| 2026-05-05 23:00 | 34.92676 | -81.30178 | 12195 ft | 310 kts | 42° |
| 2026-05-05 23:01 | 34.94211 | -81.28319 | 11747 ft | 309 kts | 42° |
| 2026-05-05 23:01 | 34.95733 | -81.26483 | 11304 ft | 307 kts | 42° |
| 2026-05-05 23:01 | 34.97251 | -81.24656 | 10864 ft | 306 kts | 42° |
| 2026-05-05 23:01 | 34.98766 | -81.22842 | 10434 ft | 305 kts | 42° |
| 2026-05-05 23:02 | 35.00278 | -81.21040 | 10013 ft | 302 kts | 42° |
| 2026-05-05 23:02 | 35.01737 | -81.19302 | 9976 ft | 285 kts | 42° |
| 2026-05-05 23:02 | 35.03104 | -81.17671 | 9970 ft | 270 kts | 42° |
| 2026-05-05 23:02 | 35.04421 | -81.16090 | 9966 ft | 258 kts | 42° |
| 2026-05-05 23:03 | 35.05685 | -81.14567 | 9972 ft | 253 kts | 42° |
| 2026-05-05 23:03 | 35.06929 | -81.13068 | 9971 ft | 249 kts | 42° |
| 2026-05-05 23:03 | 35.08154 | -81.11590 | 9966 ft | 248 kts | 42° |
| 2026-05-05 23:03 | 35.09366 | -81.10126 | 9972 ft | 248 kts | 42° |
| 2026-05-05 23:04 | 35.10598 | -81.08638 | 9973 ft | 249 kts | 42° |
| 2026-05-05 23:04 | 35.11829 | -81.07150 | 9975 ft | 249 kts | 42° |
| 2026-05-05 23:04 | 35.13064 | -81.05657 | 9976 ft | 249 kts | 42° |
| 2026-05-05 23:04 | 35.14293 | -81.04168 | 9974 ft | 249 kts | 42° |
| 2026-05-05 23:05 | 35.15525 | -81.02673 | 9972 ft | 248 kts | 42° |
| 2026-05-05 23:05 | 35.16754 | -81.01181 | 9974 ft | 249 kts | 42° |
| 2026-05-05 23:05 | 35.17980 | -80.99693 | 9976 ft | 248 kts | 42° |
| 2026-05-05 23:05 | 35.19163 | -80.98254 | 9974 ft | 248 kts | 42° |
| 2026-05-05 23:06 | 35.20399 | -80.96747 | 9741 ft | 253 kts | 42° |
| 2026-05-05 23:06 | 35.21645 | -80.95235 | 9414 ft | 256 kts | 42° |
| 2026-05-05 23:06 | 35.22915 | -80.93696 | 9083 ft | 257 kts | 42° |
| 2026-05-05 23:06 | 35.24197 | -80.92150 | 8706 ft | 260 kts | 42° |
| 2026-05-05 23:07 | 35.25502 | -80.90587 | 8314 ft | 263 kts | 42° |
| 2026-05-05 23:07 | 35.26824 | -80.89013 | 7925 ft | 266 kts | 42° |
| 2026-05-05 23:07 | 35.28164 | -80.87431 | 7546 ft | 268 kts | 42° |
| 2026-05-05 23:07 | 35.29517 | -80.85840 | 7169 ft | 270 kts | 42° |
| 2026-05-05 23:08 | 35.30914 | -80.84364 | 6804 ft | 270 kts | 33° |
| 2026-05-05 23:08 | 35.32571 | -80.83313 | 6443 ft | 269 kts | 15° |
| 2026-05-05 23:08 | 35.34410 | -80.82989 | 6047 ft | 265 kts | 357° |
| 2026-05-05 23:08 | 35.36223 | -80.83119 | 5567 ft | 249 kts | 352° |
| 2026-05-05 23:09 | 35.37939 | -80.83322 | 5068 ft | 248 kts | 352° |
| 2026-05-05 23:09 | 35.39658 | -80.83538 | 4553 ft | 255 kts | 351° |
| 2026-05-05 23:09 | 35.41424 | -80.84031 | 4020 ft | 264 kts | 336° |
| 2026-05-05 23:09 | 35.42866 | -80.85399 | 3500 ft | 266 kts | 302° |
| 2026-05-05 23:10 | 35.43492 | -80.87506 | 3038 ft | 263 kts | 269° |
| 2026-05-05 23:10 | 35.43088 | -80.89556 | 3015 ft | 239 kts | 237° |
| 2026-05-05 23:10 | 35.41917 | -80.90862 | 3011 ft | 223 kts | 208° |
| 2026-05-05 23:10 | 35.40531 | -80.91633 | 2998 ft | 218 kts | 202° |
| 2026-05-05 23:11 | 35.39130 | -80.92313 | 3012 ft | 217 kts | 201° |
| 2026-05-05 23:11 | 35.37728 | -80.92993 | 2973 ft | 215 kts | 202° |
| 2026-05-05 23:11 | 35.36379 | -80.93652 | 2975 ft | 209 kts | 201° |
| 2026-05-05 23:11 | 35.35051 | -80.94309 | 2982 ft | 203 kts | 201° |
| 2026-05-05 23:12 | 35.33687 | -80.94654 | 3052 ft | 199 kts | 179° |
| 2026-05-05 23:12 | 35.32356 | -80.94508 | 3001 ft | 187 kts | 175° |
| 2026-05-05 23:12 | 35.31083 | -80.94317 | 2669 ft | 184 kts | 174° |
| 2026-05-05 23:12 | 35.29814 | -80.94120 | 2356 ft | 181 kts | 175° |
| 2026-05-05 23:13 | 35.28574 | -80.94026 | 2043 ft | 178 kts | 180° |
| 2026-05-05 23:13 | 35.27345 | -80.94012 | 1737 ft | 173 kts | 179° |
| 2026-05-05 23:13 | 35.26156 | -80.93913 | 1484 ft | 170 kts | 176° |
| 2026-05-05 23:13 | 35.25024 | -80.93791 | 1317 ft | 160 kts | 180° |
| 2026-05-05 23:14 | 35.23919 | -80.93715 | 1098 ft | 159 kts | 177° |
| 2026-05-05 23:14 | 35.22839 | -80.93646 | 860 ft | 156 kts | 178° |
| 2026-05-05 23:14 | 35.21814 | -80.93561 | 743 ft | 135 kts | 175° |
| 2026-05-05 23:14 | 35.21093 | -80.93495 | 736 ft | 61 kts | 175° |
| 2026-05-05 23:15 | 35.20806 | -80.93470 | 734 ft | 20 kts | 164° |
| 2026-05-05 23:15 | 35.20786 | -80.93384 | 733 ft | 12 kts | 83° |
| 2026-05-05 23:15 | 35.20858 | -80.93348 | 733 ft | 13 kts | 347° |
| 2026-05-05 23:15 | 35.20955 | -80.93353 | 734 ft | 15 kts | 357° |
| 2026-05-05 23:16 | 35.21060 | -80.93360 | 734 ft | 12 kts | 356° |
| 2026-05-05 23:16 | 35.21121 | -80.93313 | 735 ft | 13 kts | 86° |
| 2026-05-05 23:16 | 35.21074 | -80.93232 | 734 ft | 14 kts | 174° |
| 2026-05-05 23:16 | 35.21051 | -80.93270 | 734 ft | 0 kts | 269° |